createdAt,value
2023-03-05T00:01:19.892Z,9.13
2023-03-05T00:06:28.673Z,9.48
2023-03-05T00:11:34.878Z,10.00
2023-03-05T00:16:40.887Z,9.20
2023-03-05T00:21:46.601Z,9.18
2023-03-05T00:26:52.179Z,10.32
2023-03-05T00:31:57.868Z,10.50
2023-03-05T00:37:03.228Z,10.02
2023-03-05T00:42:09.313Z,9.25
2023-03-05T00:47:14.846Z,8.25
2023-03-05T00:52:20.365Z,8.75
2023-03-05T00:57:26.005Z,10.07
2023-03-05T01:02:33.767Z,10.05
2023-03-05T01:07:43.083Z,9.25
2023-03-05T01:12:48.922Z,8.65
2023-03-05T01:17:54.634Z,8.65
2023-03-05T01:23:02.389Z,10.25
2023-03-05T01:28:08.319Z,10.43
2023-03-05T01:33:14.047Z,8.57
2023-03-05T01:38:20.009Z,9.13
2023-03-05T01:43:29.106Z,9.55
2023-03-05T01:48:34.988Z,9.48
2023-03-05T01:53:41.031Z,9.35
2023-03-05T01:58:46.885Z,8.75
2023-03-05T02:03:52.708Z,9.23
2023-03-05T02:08:58.176Z,8.82
2023-03-05T02:14:07.282Z,9.65
2023-03-05T02:19:14.392Z,8.88
2023-03-05T02:24:37.220Z,11.23
2023-03-05T02:29:45.769Z,8.50
2023-03-05T02:39:56.959Z,9.95
2023-03-05T02:45:04.446Z,10.15
2023-03-05T02:50:13.075Z,9.75
2023-03-05T02:55:19.041Z,10.43
2023-03-05T03:00:24.666Z,9.35
2023-03-05T03:05:30.778Z,12.60
2023-03-05T03:10:36.300Z,12.05
2023-03-05T03:15:41.949Z,11.73
2023-03-05T03:20:47.870Z,10.25
2023-03-05T03:25:53.874Z,11.18
2023-03-05T03:30:59.422Z,12.18
2023-03-05T03:36:06.704Z,11.95
2023-03-05T03:41:11.045Z,11.40
2023-03-05T03:46:15.700Z,11.43
2023-03-05T03:51:20.677Z,11.75
2023-03-05T03:56:24.949Z,11.75
2023-03-05T04:01:29.363Z,11.30
2023-03-05T04:06:34.444Z,10.13
2023-03-05T04:11:39.139Z,11.40
2023-03-05T04:16:43.524Z,10.82
2023-03-05T04:21:47.944Z,10.63
2023-03-05T04:26:53.184Z,9.50
2023-03-05T04:31:57.504Z,9.65
2023-03-05T04:37:02.079Z,10.85
2023-03-05T04:42:06.680Z,10.27
2023-03-05T04:47:11.032Z,10.82
2023-03-05T04:52:17.392Z,10.43
2023-03-05T04:57:23.158Z,10.38
2023-03-05T05:02:28.453Z,10.65
2023-03-05T05:07:33.411Z,10.38
2023-03-05T05:12:39.819Z,11.18
2023-03-05T05:17:44.201Z,11.80
2023-03-05T05:22:48.502Z,10.73
2023-03-05T05:27:52.885Z,12.30
2023-03-05T05:32:58.200Z,11.60
2023-03-05T05:38:03.517Z,10.85
2023-03-05T05:43:07.987Z,11.20
2023-03-05T05:48:12.192Z,11.38
2023-03-05T05:53:16.426Z,10.68
2023-03-05T05:58:20.740Z,12.38
2023-03-05T06:03:25.025Z,12.00
2023-03-05T06:08:29.279Z,12.07
2023-03-05T06:13:34.318Z,12.77
2023-03-05T06:18:38.465Z,12.73
2023-03-05T06:23:43.865Z,13.35
2023-03-05T06:28:48.197Z,12.73
2023-03-05T06:33:55.879Z,13.02
2023-03-05T06:39:00.132Z,14.00
2023-03-05T06:44:04.776Z,15.07
2023-03-05T06:49:10.166Z,16.83
2023-03-05T06:54:16.601Z,17.30
2023-03-05T06:59:22.230Z,16.55
2023-03-05T07:04:26.504Z,17.05
2023-03-05T07:09:31.397Z,18.77
2023-03-05T07:14:35.701Z,18.90
2023-03-05T07:19:40.825Z,18.02
2023-03-05T07:24:47.001Z,16.90
2023-03-05T07:29:52.395Z,17.08
2023-03-05T07:34:56.704Z,20.30
2023-03-05T07:40:00.991Z,16.30
2023-03-05T07:45:05.724Z,17.42
2023-03-05T07:50:10.738Z,16.50
2023-03-05T07:55:15.153Z,16.30
2023-03-05T08:00:20.554Z,17.80
2023-03-05T08:05:24.808Z,15.80
2023-03-05T08:10:29.085Z,16.70
2023-03-05T08:15:33.900Z,16.48
2023-03-05T08:20:38.168Z,14.93
2023-03-05T08:25:42.321Z,15.57
2023-03-05T08:30:48.489Z,16.55
2023-03-05T08:35:52.752Z,15.07
2023-03-05T08:40:56.927Z,15.20
2023-03-05T08:46:01.930Z,15.27
2023-03-05T08:51:13.444Z,14.75
2023-03-05T08:56:17.694Z,14.50
2023-03-05T09:01:23.217Z,14.75
2023-03-05T09:06:29.164Z,12.85
2023-03-05T09:11:36.666Z,14.07
2023-03-05T09:16:43.759Z,12.70
2023-03-05T09:21:48.077Z,12.32
2023-03-05T09:26:52.259Z,11.57
2023-03-05T09:31:56.637Z,11.38
2023-03-05T09:37:02.656Z,10.70
2023-03-05T09:42:10.404Z,9.95
2023-03-05T09:47:55.111Z,11.15
2023-03-05T09:53:19.937Z,10.57
2023-03-05T09:58:40.150Z,11.68
2023-03-05T10:04:09.320Z,10.98
2023-03-05T10:09:41.382Z,10.85
2023-03-05T10:14:45.738Z,10.88
2023-03-05T10:20:17.476Z,11.80
2023-03-05T10:25:36.247Z,9.98
2023-03-05T10:31:06.713Z,8.98
2023-03-05T10:36:42.230Z,7.65
2023-03-05T10:42:04.459Z,7.45
2023-03-05T10:47:32.194Z,9.20
2023-03-05T10:52:41.563Z,7.40
2023-03-05T10:57:47.009Z,6.55
2023-03-05T11:03:07.141Z,6.28
2023-03-05T11:08:26.473Z,5.30
2023-03-05T11:13:34.443Z,4.38
2023-03-05T11:23:44.051Z,1.73
2023-03-05T11:28:54.331Z,1.40
2023-03-05T11:34:06.155Z,2.20
2023-03-05T11:39:18.922Z,1.50
2023-03-05T11:44:48.877Z,1.35
2023-03-05T11:50:04.134Z,1.35
2023-03-05T11:55:18.043Z,1.65
2023-03-05T12:00:30.593Z,1.98
2023-03-05T12:05:40.848Z,3.13
2023-03-05T12:10:46.081Z,2.25
2023-03-05T12:16:14.441Z,2.25
2023-03-05T12:21:33.606Z,2.10
2023-03-05T12:27:00.161Z,1.70
2023-03-05T12:32:30.346Z,1.90
2023-03-05T12:37:36.587Z,1.95
2023-03-05T12:42:58.947Z,1.38
2023-03-05T12:48:03.226Z,0.90
2023-03-05T12:53:16.535Z,0.60
2023-03-05T12:58:31.112Z,0.60
2023-03-05T13:08:44.227Z,0.50
2023-03-05T13:13:51.159Z,0.32
2023-03-05T13:19:00.175Z,0.47
2023-03-05T13:24:18.502Z,0.43
2023-03-05T13:29:29.023Z,0.30
2023-03-05T13:34:47.063Z,0.30
2023-03-05T13:40:18.952Z,0.30
2023-03-05T13:45:27.075Z,0.20
2023-03-05T13:50:38.834Z,0.22
2023-03-05T13:55:44.650Z,0.50
2023-03-05T14:00:50.345Z,0.40
2023-03-05T14:05:55.975Z,0.35
2023-03-05T14:11:15.768Z,0.40
2023-03-05T14:16:33.953Z,0.20
2023-03-05T14:21:49.135Z,0.40
2023-03-05T14:26:58.992Z,0.20
2023-03-05T14:32:09.219Z,0.88
2023-03-05T14:37:42.983Z,0.38
2023-03-05T14:43:20.113Z,0.60
2023-03-05T14:48:25.597Z,0.40
2023-03-05T14:53:42.698Z,0.20
2023-03-05T14:58:48.287Z,0.52
2023-03-05T15:03:53.775Z,0.22
2023-03-05T15:08:59.933Z,0.40
2023-03-05T15:14:04.189Z,0.60
2023-03-05T15:19:20.086Z,0.50
2023-03-05T15:24:25.711Z,0.40
2023-03-05T15:29:31.408Z,0.40
2023-03-05T15:34:37.482Z,0.55
2023-03-05T15:39:43.059Z,0.30
2023-03-05T15:44:48.204Z,0.73
2023-03-05T15:49:53.675Z,0.68
2023-03-05T15:55:01.163Z,0.40
2023-03-05T16:00:09.744Z,0.40
2023-03-05T16:05:19.105Z,0.38
2023-03-05T16:10:27.559Z,0.45
2023-03-05T16:15:34.510Z,0.50
2023-03-05T16:20:39.891Z,1.17
2023-03-05T16:25:45.688Z,0.50
2023-03-05T16:30:57.047Z,0.38
2023-03-05T16:36:12.359Z,0.30
2023-03-05T16:41:19.277Z,0.75
2023-03-05T16:46:26.169Z,0.55
2023-03-05T16:51:31.571Z,0.57
2023-03-05T16:56:37.142Z,0.30
2023-03-05T17:01:42.776Z,0.85
2023-03-05T17:06:49.874Z,0.45
2023-03-05T17:11:55.730Z,0.57
2023-03-05T17:17:02.185Z,1.13
2023-03-05T17:22:06.937Z,0.60
2023-03-05T17:27:13.622Z,0.50
2023-03-05T17:32:18.858Z,0.60
2023-03-05T17:37:24.399Z,1.42
2023-03-05T17:42:29.877Z,1.02
2023-03-05T17:47:35.771Z,0.40
2023-03-05T17:52:41.955Z,0.30
2023-03-05T17:57:48.519Z,0.40
2023-03-05T18:02:54.509Z,0.60
2023-03-05T18:08:01.417Z,0.55
2023-03-05T18:13:07.132Z,0.68
2023-03-05T18:18:12.809Z,0.32
2023-03-05T18:23:18.426Z,0.77
2023-03-05T18:28:26.356Z,0.43
2023-03-05T18:33:33.381Z,0.50
2023-03-05T18:38:39.207Z,0.50
2023-03-05T18:43:44.635Z,0.75
2023-03-05T18:48:50.095Z,0.85
2023-03-05T18:53:57.956Z,0.80
2023-03-05T18:59:03.510Z,0.98
2023-03-05T19:04:09.244Z,1.00
2023-03-05T19:09:58.959Z,0.80
2023-03-05T19:15:09.417Z,0.45
2023-03-05T19:20:16.585Z,0.38
2023-03-05T19:25:22.063Z,0.68
2023-03-05T19:30:27.487Z,0.63
2023-03-05T19:35:33.529Z,1.00
2023-03-05T19:40:42.165Z,0.60
2023-03-05T19:45:47.929Z,0.50
2023-03-05T19:50:53.402Z,0.50
2023-03-05T19:56:04.697Z,0.50
2023-03-05T20:01:12.403Z,0.50
2023-03-05T20:06:18.733Z,0.60
2023-03-05T20:11:25.863Z,0.57
2023-03-05T20:16:36.615Z,0.88
2023-03-05T20:21:42.423Z,0.63
2023-03-05T20:26:48.465Z,0.50
2023-03-05T20:31:57.032Z,1.27
2023-03-05T20:37:02.556Z,0.50
2023-03-05T20:42:08.053Z,0.90
2023-03-05T20:47:47.029Z,1.27
2023-03-05T20:52:52.501Z,0.85
2023-03-05T20:57:58.476Z,0.60
2023-03-05T21:03:04.818Z,0.60
2023-03-05T21:08:10.174Z,0.60
2023-03-05T21:13:15.438Z,0.68
2023-03-05T21:18:20.854Z,0.57
2023-03-05T21:23:26.414Z,1.05
2023-03-05T21:28:32.634Z,0.50
2023-03-05T21:33:38.329Z,1.67
2023-03-05T21:38:43.747Z,0.52
2023-03-05T21:43:49.387Z,0.90
2023-03-05T21:48:54.916Z,0.82
2023-03-05T21:54:00.342Z,0.88
2023-03-05T21:59:05.819Z,0.75
2023-03-05T22:04:11.488Z,0.40
2023-03-05T22:09:16.978Z,0.50
2023-03-05T22:14:22.861Z,0.85
2023-03-05T22:19:30.391Z,0.77
2023-03-05T22:24:35.801Z,0.60
2023-03-05T22:29:41.214Z,1.05
2023-03-05T22:34:46.556Z,0.30
2023-03-05T22:39:57.866Z,0.90
2023-03-05T22:45:03.298Z,1.30
2023-03-05T22:50:10.115Z,0.60
2023-03-05T22:55:16.947Z,1.08
2023-03-05T23:00:24.304Z,0.77
2023-03-05T23:05:29.686Z,1.00
2023-03-05T23:10:35.606Z,2.22
2023-03-05T23:15:41.202Z,1.25
2023-03-05T23:20:46.596Z,2.15
2023-03-05T23:25:52.905Z,1.42
2023-03-05T23:30:59.191Z,1.00
2023-03-05T23:36:04.924Z,0.70
2023-03-05T23:41:10.575Z,1.05
2023-03-05T23:46:16.385Z,2.33
2023-03-05T23:51:22.199Z,1.48
2023-03-05T23:56:27.724Z,0.63
